SABESAAP

Guest
Details From SABE - Aeroparque Jorge Newbery
To SAAP - GENERAL URQUIZA
Flight Number -
Tags generated
Created
Modified
Stats Distance 196 nm / 363 km
Max Altitude 14,700 ft / 4,481 m
Waypoints 5
Social Downloads 8
Likes 0
Share VATSIM

Download

Looking for another format? Having issues loading an existing format? Contact us
Advertisement - Login to hide

Notes

Basic altitude profile: - Ascent Rate: 3000ft/min - Ascent Speed: 250kts - Cruise Altitude: 26000ft - Cruise Speed: 400kts - Descent Rate: 3000ft/min - Descent Speed: 250kts Options: - Use NATs: yes - Use PACOTS: yes - Use low airways: yes - Use high airways: yes

Route

SABE BIVAM W8 PAR SAAP

ID Type Via Altitude Latitude Longitude Leg Dist Tot Dist Heading (true) Name
O SABE APT - 0 ft / 0 m -34.55941˚ -58.41575˚ - 0 nm - Aeroparque Jorge Newbery
BIVAM FIX - 14,700 ft / 4,481 m -33.97111˚ -58.94556˚ 44 nm 44 nm 323° / 323° -
UGALA FIX W8 (AWY-LO) 10,900 ft / 3,322 m -32.59583˚ -59.93389˚ 96 nm 140 nm 329° / 329° -
PAR VOR W8 (AWY-LO) 4,500 ft / 1,372 m -31.80833˚ -60.48472˚ 54 nm 195 nm 329° / 330° PARANA VOR-DME
O SAAP APT - 0 ft / 0 m -31.79478˚ -60.48035˚ 0 nm 196 nm 15° / 15° GENERAL URQUIZA

Altitude Profile

Advertisement - Login to hide

Weather


0- 5 10 15 20 25 30 35+ Temperature / ° C

Clouds and Precipitation
Forecast for 2018-05-22 12:00 UTC. Updated an hour ago

Ground ~20,000 ft ~40,000 ft Winds

SABE

Details ICAO SABE (AEP)
Name Aeroparque Jorge Newbery
Region Argentina
Timezone Unknown (UTC+0.0)
Stats Elevation 17 ft / 5 m (AMSL)
Location -34.559414° -58.415749°
Runways 1
Magnetic Variation 9.053° W

METAR

SABE 221000Z VRB02KT CAVOK 09/04 Q1021 NOSIG

Decode

TAF

TAF SABE 220500Z 2206/2306 20005KT CAVOK TX16/2218Z TN08/2210Z BECMG 2212/2214 25010KT

Decode

Departure Runways

ID Width Length Bearing (true) Bearing (mag) Surface Threshold Offset Overrun Length
13 131 ft / 40 m 6,882 ft / 2,098 m 123.87° 132.92° Concrete 0 ft / 0 m 791 ft / 241 m
31 131 ft / 40 m 6,882 ft / 2,098 m 303.86° 312.91° Concrete 991 ft / 302 m 0 ft / 0 m

SAAP

Details ICAO SAAP (PRA)
Name GENERAL URQUIZA
Region Argentina
Timezone America/Argentina/Cordoba (UTC-3.0)
Stats Elevation 243 ft / 74 m (AMSL)
Location -31.794778° -60.480347°
Runways 1
Magnetic Variation 8.799° W

METAR

Not found

TAF

TAF TAF SAAP 212300Z 2200/2224 18005KT CAVOK TX18/2218Z TN05/2211Z BECMG 2212/2214 20006KT

Decode

Destination Runways

ID Width Length Bearing (true) Bearing (mag) Surface Threshold Offset Overrun Length
01 147 ft / 45 m 6,906 ft / 2,105 m 8.39° 17.19° Asphalt 0 ft / 0 m 820 ft / 250 m
19 147 ft / 45 m 6,906 ft / 2,105 m 188.39° 197.19° Asphalt 0 ft / 0 m 820 ft / 250 m

Approach Navaids

Runway Type Ident Frequency Range Bearing (true) Bearing (mag) Slope Elevation
19 Localiser PA 110.30 MHz 18 nm / 33 km 189.71° 198.51° - 243 ft / 74 m (AMSL)
19 Glidescope PA 110.30 MHz 10 nm / 19 km 188.39° 197.19° 2.50° 243 ft / 74 m (AMSL)

Popular Alternatives